createdAt,value
2023-11-19T00:02:53.907Z,2.38
2023-11-19T00:05:57.953Z,2.36
2023-11-19T00:09:01.266Z,2.28
2023-11-19T00:12:08.300Z,2.32
2023-11-19T00:15:15.351Z,2.33
2023-11-19T00:18:18.097Z,2.28
2023-11-19T00:21:23.057Z,2.25
2023-11-19T00:24:25.676Z,2.24
2023-11-19T00:27:28.042Z,2.19
2023-11-19T00:30:32.460Z,2.21
2023-11-19T00:36:47.211Z,2.19
2023-11-19T00:39:49.771Z,2.22
2023-11-19T00:42:52.819Z,2.18
2023-11-19T00:45:55.332Z,2.16
2023-11-19T00:49:06.573Z,2.11
2023-11-19T00:52:08.969Z,2.09
2023-11-19T00:55:12.801Z,2.10
2023-11-19T00:58:18.525Z,2.10
2023-11-19T01:01:21.801Z,2.06
2023-11-19T01:04:25.513Z,2.10
2023-11-19T01:07:28.641Z,2.07
2023-11-19T01:10:31.428Z,2.07
2023-11-19T01:13:44.196Z,2.11
2023-11-19T01:17:15.337Z,2.12
2023-11-19T01:20:33.984Z,2.04
2023-11-19T01:27:40.111Z,2.02
2023-11-19T01:31:10.075Z,2.01
2023-11-19T01:34:24.784Z,2.05
2023-11-19T01:37:48.393Z,2.00
2023-11-19T01:41:21.061Z,2.02
2023-11-19T01:44:36.985Z,2.01
2023-11-19T01:51:17.173Z,2.02
2023-11-19T01:54:37.884Z,1.97
2023-11-19T01:58:03.119Z,1.93
2023-11-19T02:01:38.121Z,2.00
2023-11-19T02:05:13.105Z,1.94
2023-11-19T02:08:32.881Z,1.86
2023-11-19T02:11:49.417Z,1.82
2023-11-19T02:14:57.365Z,1.78
2023-11-19T02:18:29.947Z,1.81
2023-11-19T02:22:03.474Z,1.72
2023-11-19T02:25:34.900Z,1.69
2023-11-19T02:32:09.349Z,1.38
2023-11-19T02:39:06.574Z,0.99
2023-11-19T02:42:26.098Z,0.77
2023-11-19T02:46:02.193Z,0.64
2023-11-19T02:49:18.964Z,0.45
2023-11-19T02:52:50.284Z,0.40
2023-11-19T02:56:01.867Z,0.34
2023-11-19T02:59:30.459Z,0.22
2023-11-19T03:03:05.740Z,0.16
2023-11-19T03:06:27.708Z,0.16
2023-11-19T03:09:54.106Z,0.10
2023-11-19T03:13:06.354Z,0.08
2023-11-19T03:16:22.849Z,0.03
2023-11-19T03:20:08.543Z,-0.03
2023-11-19T03:23:28.480Z,-0.18
2023-11-19T03:27:03.100Z,-0.26
2023-11-19T03:33:51.464Z,-0.37
2023-11-19T03:36:58.242Z,-0.28
2023-11-19T03:40:23.976Z,-0.35
2023-11-19T03:43:47.023Z,-0.38
2023-11-19T03:47:13.885Z,-0.45
2023-11-19T03:50:45.728Z,-0.55
2023-11-19T03:54:18.933Z,-0.53
2023-11-19T03:57:31.121Z,-0.64
2023-11-19T04:00:51.886Z,-0.76
2023-11-19T04:04:24.565Z,-0.85
2023-11-19T04:08:04.630Z,-0.90
2023-11-19T04:11:21.909Z,-0.98
2023-11-19T04:14:31.315Z,-1.00
2023-11-19T04:17:58.718Z,-1.05
2023-11-19T04:21:13.615Z,-1.12
2023-11-19T04:24:41.790Z,-1.16
2023-11-19T04:31:14.044Z,-1.26
2023-11-19T04:34:20.868Z,-1.29
2023-11-19T04:37:35.673Z,-1.32
2023-11-19T04:44:08.119Z,-1.35
2023-11-19T04:47:27.822Z,-1.26
2023-11-19T04:51:21.038Z,-1.28
2023-11-19T04:54:43.932Z,-1.37
2023-11-19T04:58:22.903Z,-1.35
2023-11-19T05:01:32.406Z,-1.35
2023-11-19T05:04:59.330Z,-1.39
2023-11-19T05:08:33.372Z,-1.33
2023-11-19T05:12:17.201Z,-1.22
2023-11-19T05:15:49.648Z,-1.25
2023-11-19T05:19:15.260Z,-1.24
2023-11-19T05:22:31.554Z,-1.36
2023-11-19T05:26:00.430Z,-1.28
2023-11-19T05:29:14.294Z,-1.30
2023-11-19T05:33:09.669Z,-1.28
2023-11-19T05:36:19.360Z,-1.24
2023-11-19T05:39:33.535Z,-1.21
2023-11-19T05:43:01.621Z,-1.11
2023-11-19T05:46:19.911Z,-1.06
2023-11-19T05:49:38.121Z,-0.95
2023-11-19T05:52:54.170Z,-0.89
2023-11-19T05:56:40.829Z,-0.85
2023-11-19T06:00:13.356Z,-0.78
2023-11-19T06:03:39.192Z,-0.70
2023-11-19T06:06:53.809Z,-0.58
2023-11-19T06:10:34.567Z,-0.41
2023-11-19T06:14:16.537Z,-0.45
2023-11-19T06:18:07.000Z,-0.26
2023-11-19T06:21:30.269Z,-0.27
2023-11-19T06:24:44.101Z,-0.20
2023-11-19T06:27:59.236Z,-0.07
2023-11-19T06:31:11.958Z,-0.06
2023-11-19T06:34:33.068Z,0.09
2023-11-19T06:38:09.790Z,0.17
2023-11-19T06:41:32.824Z,0.37
2023-11-19T06:45:06.988Z,0.48
2023-11-19T06:48:15.198Z,0.69
2023-11-19T06:51:50.383Z,0.88
2023-11-19T06:58:24.700Z,1.05
2023-11-19T07:01:48.987Z,0.93
2023-11-19T07:04:56.710Z,1.15
2023-11-19T07:08:18.489Z,1.20
2023-11-19T07:11:47.104Z,1.15
2023-11-19T07:15:29.389Z,1.20
2023-11-19T07:18:47.154Z,1.20
2023-11-19T07:25:40.446Z,1.57
2023-11-19T07:29:30.420Z,1.67
2023-11-19T07:36:51.579Z,2.41
2023-11-19T07:43:44.957Z,3.09
2023-11-19T07:46:55.964Z,3.44
2023-11-19T07:50:39.824Z,4.06
2023-11-19T07:54:14.751Z,3.26
2023-11-19T08:01:10.490Z,3.26
2023-11-19T08:04:29.295Z,3.34
2023-11-19T08:07:40.420Z,4.13
2023-11-19T08:11:14.961Z,4.31
2023-11-19T08:14:23.898Z,4.16
2023-11-19T08:17:51.473Z,5.46
2023-11-19T08:24:47.970Z,4.23
2023-11-19T08:28:19.679Z,3.93
2023-11-19T08:31:34.566Z,4.08
2023-11-19T08:38:47.071Z,4.27
2023-11-19T08:42:21.676Z,3.16
2023-11-19T08:46:01.494Z,4.14
2023-11-19T08:49:29.678Z,3.19
2023-11-19T08:52:54.154Z,3.02
2023-11-19T08:56:51.660Z,3.28
2023-11-19T09:03:56.276Z,3.96
2023-11-19T09:07:25.329Z,3.82
2023-11-19T09:10:42.188Z,3.99
2023-11-19T09:14:03.665Z,4.72
2023-11-19T09:17:38.710Z,5.30
2023-11-19T09:21:29.029Z,4.89
2023-11-19T09:24:44.116Z,5.41
2023-11-19T09:27:57.989Z,4.44
2023-11-19T09:31:19.981Z,4.27
2023-11-19T09:34:40.272Z,3.69
2023-11-19T09:42:17.155Z,4.24
2023-11-19T09:49:41.979Z,4.81
2023-11-19T09:56:31.960Z,4.53
2023-11-19T10:00:06.178Z,4.07
2023-11-19T10:06:47.925Z,4.22
2023-11-19T10:10:20.420Z,4.33
2023-11-19T10:17:44.159Z,4.29
2023-11-19T10:28:23.966Z,5.53
2023-11-19T10:31:34.470Z,4.79
2023-11-19T10:34:53.982Z,4.46
2023-11-19T10:38:26.877Z,4.28
2023-11-19T10:45:49.255Z,3.75
2023-11-19T10:49:13.815Z,4.11
2023-11-19T10:53:06.506Z,3.97
2023-11-19T10:56:29.029Z,4.37
2023-11-19T10:59:45.350Z,4.06
2023-11-19T11:03:21.622Z,4.17
2023-11-19T11:06:35.589Z,3.98
2023-11-19T11:09:59.321Z,4.11
2023-11-19T11:13:37.793Z,4.14
2023-11-19T11:16:56.286Z,3.84
2023-11-19T11:20:08.002Z,3.79
2023-11-19T11:24:03.575Z,3.74
2023-11-19T11:32:02.266Z,3.65
2023-11-19T11:35:44.732Z,3.47
2023-11-19T11:38:57.492Z,3.76
2023-11-19T11:42:34.605Z,3.62
2023-11-19T11:46:18.144Z,3.74
2023-11-19T11:49:58.729Z,3.65
2023-11-19T11:53:42.523Z,3.74
2023-11-19T11:57:27.560Z,3.82
2023-11-19T12:00:44.335Z,3.80
2023-11-19T12:04:08.653Z,3.51
2023-11-19T12:07:48.739Z,3.72
2023-11-19T12:11:08.558Z,3.47
2023-11-19T12:14:23.495Z,3.50
2023-11-19T12:18:00.046Z,3.59
2023-11-19T12:21:27.393Z,3.65
2023-11-19T12:25:15.987Z,3.52
2023-11-19T12:28:40.546Z,3.62
2023-11-19T12:32:14.553Z,3.48
2023-11-19T12:35:44.745Z,3.53
2023-11-19T12:39:02.456Z,3.55
2023-11-19T12:42:25.458Z,3.59
2023-11-19T12:45:53.257Z,3.56
2023-11-19T12:49:18.045Z,3.45
2023-11-19T12:52:28.351Z,3.58
2023-11-19T12:55:41.335Z,3.48
2023-11-19T13:02:52.661Z,3.65
2023-11-19T13:06:32.967Z,3.50
2023-11-19T13:09:55.602Z,3.58
2023-11-19T13:13:10.773Z,3.51
2023-11-19T13:19:59.748Z,3.53
2023-11-19T13:23:20.162Z,3.51
2023-11-19T13:26:44.596Z,3.64
2023-11-19T13:29:57.576Z,3.61
2023-11-19T13:33:26.670Z,3.63
2023-11-19T13:36:37.938Z,3.59
2023-11-19T13:39:46.362Z,3.66
2023-11-19T13:42:52.753Z,3.58
2023-11-19T13:46:32.481Z,3.55
2023-11-19T13:49:58.925Z,3.63
2023-11-19T13:53:12.917Z,3.57
2023-11-19T13:56:29.805Z,3.53
2023-11-19T13:59:48.136Z,3.49
2023-11-19T14:03:07.863Z,3.47
2023-11-19T14:13:41.871Z,3.23
2023-11-19T14:17:13.783Z,3.08
2023-11-19T14:20:25.052Z,3.00
2023-11-19T14:23:42.073Z,3.06
2023-11-19T14:27:06.980Z,2.95
2023-11-19T14:30:37.795Z,2.98
2023-11-19T14:33:57.615Z,2.93
2023-11-19T14:37:11.073Z,2.96
2023-11-19T14:47:56.444Z,2.97
2023-11-19T14:51:17.584Z,2.97
2023-11-19T14:54:50.182Z,2.97
2023-11-19T14:58:08.736Z,3.00
2023-11-19T15:01:16.536Z,2.93
2023-11-19T15:04:36.114Z,2.95
2023-11-19T15:08:14.068Z,2.92
2023-11-19T15:11:55.064Z,2.87
2023-11-19T15:22:45.411Z,2.72
2023-11-19T15:26:09.309Z,2.69
2023-11-19T15:29:25.379Z,2.75
2023-11-19T15:32:54.374Z,2.72
2023-11-19T15:36:13.810Z,2.72
2023-11-19T15:39:21.386Z,2.65
2023-11-19T15:42:55.294Z,2.69
2023-11-19T15:46:09.649Z,2.69
2023-11-19T15:49:27.457Z,2.73
2023-11-19T15:52:48.049Z,2.75
2023-11-19T15:56:01.401Z,2.76
2023-11-19T15:59:28.101Z,2.82
2023-11-19T16:02:49.748Z,2.81
2023-11-19T16:06:21.236Z,2.90
2023-11-19T16:10:14.303Z,2.92
2023-11-19T16:13:45.110Z,2.98
2023-11-19T16:17:01.321Z,3.00
2023-11-19T16:20:19.142Z,2.89
2023-11-19T16:23:35.019Z,2.86
2023-11-19T16:27:00.689Z,2.68
2023-11-19T16:30:29.254Z,2.47
2023-11-19T16:34:07.039Z,2.40
2023-11-19T16:37:30.610Z,2.33
2023-11-19T16:40:57.028Z,2.35
2023-11-19T16:44:16.909Z,2.33
2023-11-19T16:47:43.518Z,2.42
2023-11-19T16:51:04.784Z,2.42
2023-11-19T16:54:37.520Z,2.40
2023-11-19T17:01:27.399Z,2.41
2023-11-19T17:04:46.233Z,2.45
2023-11-19T17:07:59.254Z,2.43
2023-11-19T17:11:15.449Z,2.41
2023-11-19T17:14:41.387Z,2.45
2023-11-19T17:17:58.901Z,2.47
2023-11-19T17:21:26.576Z,2.51
2023-11-19T17:28:33.339Z,2.59
2023-11-19T17:31:58.248Z,2.51
2023-11-19T17:38:41.778Z,2.54
2023-11-19T17:42:03.836Z,2.57
2023-11-19T17:45:24.299Z,2.54
2023-11-19T17:48:37.870Z,2.54
2023-11-19T17:51:49.251Z,2.55
2023-11-19T17:59:04.429Z,2.51
2023-11-19T18:02:20.926Z,2.48
2023-11-19T18:09:01.066Z,2.61
2023-11-19T18:12:18.089Z,2.68
2023-11-19T18:19:44.656Z,2.78
2023-11-19T18:23:06.220Z,2.79
2023-11-19T18:33:36.783Z,2.86
2023-11-19T18:37:06.525Z,2.88
2023-11-19T18:40:31.715Z,2.90
2023-11-19T18:44:22.417Z,2.96
2023-11-19T18:47:31.960Z,2.97
2023-11-19T18:54:31.434Z,3.06
2023-11-19T19:01:49.802Z,3.11
2023-11-19T19:05:05.764Z,3.09
2023-11-19T19:08:32.436Z,3.17
2023-11-19T19:12:00.782Z,3.17
2023-11-19T19:15:22.758Z,3.20
2023-11-19T19:18:50.680Z,3.28
2023-11-19T19:26:19.912Z,3.29
2023-11-19T19:33:02.695Z,3.32
2023-11-19T19:36:21.185Z,3.37
2023-11-19T19:43:15.217Z,3.38
2023-11-19T19:47:08.703Z,3.39
2023-11-19T19:50:20.403Z,3.40
2023-11-19T19:57:36.125Z,3.39
2023-11-19T20:01:26.464Z,3.41
2023-11-19T20:08:21.710Z,3.46
2023-11-19T20:11:59.267Z,3.45
2023-11-19T20:15:29.760Z,3.45
2023-11-19T20:18:52.629Z,3.48
2023-11-19T20:22:00.880Z,3.46
2023-11-19T20:25:19.645Z,3.47
2023-11-19T20:35:34.562Z,3.53
2023-11-19T20:39:10.392Z,3.53
2023-11-19T20:42:19.139Z,3.54
2023-11-19T20:45:39.920Z,3.52
2023-11-19T20:49:34.088Z,3.53
2023-11-19T21:00:10.012Z,3.59
2023-11-19T21:03:29.866Z,3.60
2023-11-19T21:07:07.862Z,3.62
2023-11-19T21:10:27.145Z,3.59
2023-11-19T21:14:01.366Z,3.58
2023-11-19T21:17:29.493Z,3.61
2023-11-19T21:21:10.103Z,3.61
2023-11-19T21:24:27.001Z,3.62
2023-11-19T21:27:54.579Z,3.61
2023-11-19T21:35:19.450Z,3.61
2023-11-19T21:38:44.909Z,3.66
2023-11-19T21:42:20.573Z,3.67
2023-11-19T21:45:46.755Z,3.66
2023-11-19T21:49:06.958Z,3.64
2023-11-19T21:52:25.333Z,3.66
2023-11-19T21:59:44.402Z,3.65
2023-11-19T22:03:08.394Z,3.68
2023-11-19T22:06:47.303Z,3.68
2023-11-19T22:09:56.290Z,3.70
2023-11-19T22:13:21.854Z,3.67
2023-11-19T22:16:43.087Z,3.70
2023-11-19T22:20:24.386Z,3.70
2023-11-19T22:24:04.023Z,3.72
2023-11-19T22:27:32.734Z,3.76
2023-11-19T22:30:45.377Z,3.76
2023-11-19T22:34:05.696Z,3.79
2023-11-19T22:37:36.693Z,3.74
2023-11-19T22:41:12.879Z,3.77
2023-11-19T22:51:43.866Z,3.79
2023-11-19T22:55:23.162Z,3.77
2023-11-19T22:58:47.623Z,3.83
2023-11-19T23:02:14.323Z,3.77
2023-11-19T23:05:58.049Z,3.74
2023-11-19T23:09:20.460Z,3.75
2023-11-19T23:13:28.162Z,3.77
2023-11-19T23:17:00.250Z,3.75
2023-11-19T23:20:28.614Z,3.73
2023-11-19T23:23:40.692Z,3.74
2023-11-19T23:27:25.488Z,3.70
2023-11-19T23:30:36.842Z,3.75
2023-11-19T23:38:06.300Z,3.71
2023-11-19T23:41:22.700Z,3.69
2023-11-19T23:44:42.341Z,3.70
2023-11-19T23:48:16.240Z,3.73
2023-11-19T23:51:28.267Z,3.74
2023-11-19T23:54:52.075Z,3.71
2023-11-19T23:58:38.485Z,3.81
